sensor_id;sensor_type;location;lat;lon;timestamp;P1;durP1;ratioP1;P2;durP2;ratioP2
76447;SDS011;65284;51.040;13.722;2023-09-18T00:00:03;6.35;;;3.63;;
76447;SDS011;65284;51.040;13.722;2023-09-18T00:02:34;7.35;;;4.03;;
76447;SDS011;65284;51.040;13.722;2023-09-18T00:05:01;5.72;;;3.72;;
76447;SDS011;65284;51.040;13.722;2023-09-18T00:07:27;8.32;;;4.00;;
76447;SDS011;65284;51.040;13.722;2023-09-18T00:09:54;5.75;;;3.60;;
76447;SDS011;65284;51.040;13.722;2023-09-18T00:12:20;6.82;;;4.00;;
76447;SDS011;65284;51.040;13.722;2023-09-18T00:14:47;5.78;;;3.90;;
76447;SDS011;65284;51.040;13.722;2023-09-18T00:17:16;5.60;;;3.75;;
76447;SDS011;65284;51.040;13.722;2023-09-18T00:19:43;5.47;;;3.88;;
76447;SDS011;65284;51.040;13.722;2023-09-18T00:22:09;5.32;;;3.65;;
76447;SDS011;65284;51.040;13.722;2023-09-18T00:24:36;5.57;;;4.45;;
76447;SDS011;65284;51.040;13.722;2023-09-18T00:27:02;5.18;;;4.13;;
76447;SDS011;65284;51.040;13.722;2023-09-18T00:29:29;7.22;;;4.00;;
76447;SDS011;65284;51.040;13.722;2023-09-18T00:31:56;5.63;;;4.15;;
76447;SDS011;65284;51.040;13.722;2023-09-18T00:34:22;6.05;;;4.10;;
76447;SDS011;65284;51.040;13.722;2023-09-18T00:36:49;4.90;;;3.67;;
76447;SDS011;65284;51.040;13.722;2023-09-18T00:39:15;5.95;;;3.97;;
76447;SDS011;65284;51.040;13.722;2023-09-18T00:41:42;5.70;;;4.10;;
76447;SDS011;65284;51.040;13.722;2023-09-18T00:44:09;6.05;;;3.88;;
76447;SDS011;65284;51.040;13.722;2023-09-18T00:46:36;5.25;;;4.05;;
76447;SDS011;65284;51.040;13.722;2023-09-18T00:49:02;5.47;;;4.10;;
76447;SDS011;65284;51.040;13.722;2023-09-18T00:51:30;6.65;;;4.15;;
76447;SDS011;65284;51.040;13.722;2023-09-18T00:53:57;5.78;;;4.20;;
76447;SDS011;65284;51.040;13.722;2023-09-18T00:56:24;6.57;;;4.20;;
76447;SDS011;65284;51.040;13.722;2023-09-18T00:58:50;7.25;;;4.22;;
76447;SDS011;65284;51.040;13.722;2023-09-18T01:01:18;8.18;;;4.80;;
76447;SDS011;65284;51.040;13.722;2023-09-18T01:03:49;6.53;;;4.25;;
76447;SDS011;65284;51.040;13.722;2023-09-18T01:06:17;5.47;;;4.00;;
76447;SDS011;65284;51.040;13.722;2023-09-18T01:08:46;5.47;;;4.15;;
76447;SDS011;65284;51.040;13.722;2023-09-18T01:11:20;6.70;;;4.38;;
76447;SDS011;65284;51.040;13.722;2023-09-18T01:14:00;6.95;;;4.40;;
76447;SDS011;65284;51.040;13.722;2023-09-18T01:16:37;5.93;;;4.10;;
76447;SDS011;65284;51.040;13.722;2023-09-18T01:19:10;6.65;;;4.35;;
76447;SDS011;65284;51.040;13.722;2023-09-18T01:21:37;5.70;;;4.30;;
76447;SDS011;65284;51.040;13.722;2023-09-18T01:24:03;5.80;;;4.40;;
76447;SDS011;65284;51.040;13.722;2023-09-18T01:26:30;6.82;;;4.32;;
76447;SDS011;65284;51.040;13.722;2023-09-18T01:28:57;5.63;;;4.25;;
76447;SDS011;65284;51.040;13.722;2023-09-18T01:31:23;7.22;;;4.22;;
76447;SDS011;65284;51.040;13.722;2023-09-18T01:33:52;6.10;;;4.72;;
76447;SDS011;65284;51.040;13.722;2023-09-18T01:36:20;6.97;;;4.85;;
76447;SDS011;65284;51.040;13.722;2023-09-18T01:38:47;5.90;;;4.25;;
76447;SDS011;65284;51.040;13.722;2023-09-18T01:41:16;7.03;;;4.57;;
76447;SDS011;65284;51.040;13.722;2023-09-18T01:43:43;7.82;;;4.35;;
76447;SDS011;65284;51.040;13.722;2023-09-18T01:46:09;6.88;;;4.55;;
76447;SDS011;65284;51.040;13.722;2023-09-18T01:48:36;9.32;;;4.70;;
76447;SDS011;65284;51.040;13.722;2023-09-18T01:51:04;7.28;;;4.40;;
76447;SDS011;65284;51.040;13.722;2023-09-18T01:53:30;6.97;;;4.43;;
76447;SDS011;65284;51.040;13.722;2023-09-18T01:55:57;9.80;;;4.93;;
76447;SDS011;65284;51.040;13.722;2023-09-18T01:58:24;7.43;;;5.13;;
76447;SDS011;65284;51.040;13.722;2023-09-18T02:00:50;6.82;;;4.65;;
76447;SDS011;65284;51.040;13.722;2023-09-18T02:03:17;6.10;;;4.55;;
76447;SDS011;65284;51.040;13.722;2023-09-18T02:06:06;7.53;;;4.60;;
76447;SDS011;65284;51.040;13.722;2023-09-18T02:08:35;8.23;;;5.03;;
76447;SDS011;65284;51.040;13.722;2023-09-18T02:11:01;6.13;;;4.90;;
76447;SDS011;65284;51.040;13.722;2023-09-18T02:13:29;6.05;;;4.63;;
76447;SDS011;65284;51.040;13.722;2023-09-18T02:15:55;10.02;;;4.93;;
76447;SDS011;65284;51.040;13.722;2023-09-18T02:18:22;8.15;;;5.05;;
76447;SDS011;65284;51.040;13.722;2023-09-18T02:20:49;7.13;;;4.75;;
76447;SDS011;65284;51.040;13.722;2023-09-18T02:23:15;6.57;;;4.68;;
76447;SDS011;65284;51.040;13.722;2023-09-18T02:25:42;7.07;;;4.72;;
76447;SDS011;65284;51.040;13.722;2023-09-18T02:28:08;6.65;;;4.90;;
76447;SDS011;65284;51.040;13.722;2023-09-18T02:30:35;7.70;;;5.25;;
76447;SDS011;65284;51.040;13.722;2023-09-18T02:33:01;8.85;;;4.78;;
76447;SDS011;65284;51.040;13.722;2023-09-18T02:35:29;8.02;;;5.13;;
76447;SDS011;65284;51.040;13.722;2023-09-18T02:37:56;6.95;;;5.00;;
76447;SDS011;65284;51.040;13.722;2023-09-18T02:40:23;9.90;;;4.80;;
76447;SDS011;65284;51.040;13.722;2023-09-18T02:42:49;7.88;;;5.00;;
76447;SDS011;65284;51.040;13.722;2023-09-18T02:45:16;7.72;;;5.00;;
76447;SDS011;65284;51.040;13.722;2023-09-18T02:47:42;6.72;;;5.15;;
76447;SDS011;65284;51.040;13.722;2023-09-18T02:50:09;7.80;;;5.20;;
76447;SDS011;65284;51.040;13.722;2023-09-18T02:52:37;6.90;;;4.93;;
76447;SDS011;65284;51.040;13.722;2023-09-18T02:55:04;7.28;;;5.00;;
76447;SDS011;65284;51.040;13.722;2023-09-18T02:57:31;7.55;;;5.13;;
76447;SDS011;65284;51.040;13.722;2023-09-18T02:59:57;8.93;;;5.05;;
76447;SDS011;65284;51.040;13.722;2023-09-18T03:02:24;7.95;;;4.90;;
76447;SDS011;65284;51.040;13.722;2023-09-18T03:04:51;6.43;;;5.13;;
76447;SDS011;65284;51.040;13.722;2023-09-18T03:07:17;7.90;;;5.20;;
76447;SDS011;65284;51.040;13.722;2023-09-18T03:09:44;6.70;;;5.28;;
76447;SDS011;65284;51.040;13.722;2023-09-18T03:12:10;6.80;;;4.97;;
76447;SDS011;65284;51.040;13.722;2023-09-18T03:14:37;7.13;;;5.30;;
76447;SDS011;65284;51.040;13.722;2023-09-18T03:17:03;6.88;;;5.07;;
76447;SDS011;65284;51.040;13.722;2023-09-18T03:19:30;6.95;;;5.25;;
76447;SDS011;65284;51.040;13.722;2023-09-18T03:21:57;6.95;;;5.15;;
76447;SDS011;65284;51.040;13.722;2023-09-18T03:24:23;7.55;;;5.50;;
76447;SDS011;65284;51.040;13.722;2023-09-18T03:26:49;7.57;;;5.10;;
76447;SDS011;65284;51.040;13.722;2023-09-18T03:29:16;6.13;;;5.10;;
76447;SDS011;65284;51.040;13.722;2023-09-18T03:31:42;7.88;;;5.50;;
76447;SDS011;65284;51.040;13.722;2023-09-18T03:34:09;7.40;;;5.20;;
76447;SDS011;65284;51.040;13.722;2023-09-18T03:36:35;7.47;;;5.30;;
76447;SDS011;65284;51.040;13.722;2023-09-18T03:39:03;7.07;;;5.50;;
76447;SDS011;65284;51.040;13.722;2023-09-18T03:41:31;7.53;;;5.68;;
76447;SDS011;65284;51.040;13.722;2023-09-18T03:44:00;7.47;;;5.97;;
76447;SDS011;65284;51.040;13.722;2023-09-18T03:46:28;7.95;;;5.40;;
76447;SDS011;65284;51.040;13.722;2023-09-18T03:48:54;8.07;;;5.63;;
76447;SDS011;65284;51.040;13.722;2023-09-18T03:51:23;6.90;;;5.20;;
76447;SDS011;65284;51.040;13.722;2023-09-18T03:53:50;8.00;;;5.60;;
76447;SDS011;65284;51.040;13.722;2023-09-18T03:56:17;7.47;;;5.43;;
76447;SDS011;65284;51.040;13.722;2023-09-18T03:58:43;7.70;;;5.63;;
76447;SDS011;65284;51.040;13.722;2023-09-18T04:03:39;8.02;;;5.32;;
76447;SDS011;65284;51.040;13.722;2023-09-18T04:06:05;7.47;;;5.45;;
76447;SDS011;65284;51.040;13.722;2023-09-18T04:08:32;9.07;;;5.95;;
76447;SDS011;65284;51.040;13.722;2023-09-18T04:10:59;7.00;;;5.35;;
76447;SDS011;65284;51.040;13.722;2023-09-18T04:13:26;7.88;;;5.45;;
76447;SDS011;65284;51.040;13.722;2023-09-18T04:15:54;9.15;;;5.55;;
76447;SDS011;65284;51.040;13.722;2023-09-18T04:18:23;8.20;;;5.55;;
76447;SDS011;65284;51.040;13.722;2023-09-18T04:20:49;8.32;;;5.53;;
76447;SDS011;65284;51.040;13.722;2023-09-18T04:23:22;9.20;;;6.13;;
76447;SDS011;65284;51.040;13.722;2023-09-18T04:25:50;10.15;;;7.20;;
76447;SDS011;65284;51.040;13.722;2023-09-18T04:28:20;10.15;;;6.85;;
76447;SDS011;65284;51.040;13.722;2023-09-18T04:30:48;10.02;;;6.22;;
76447;SDS011;65284;51.040;13.722;2023-09-18T04:33:14;10.75;;;6.93;;
76447;SDS011;65284;51.040;13.722;2023-09-18T04:35:42;10.00;;;6.50;;
76447;SDS011;65284;51.040;13.722;2023-09-18T04:38:10;17.30;;;11.75;;
76447;SDS011;65284;51.040;13.722;2023-09-18T04:40:43;8.57;;;5.88;;
76447;SDS011;65284;51.040;13.722;2023-09-18T04:43:09;10.25;;;6.25;;
76447;SDS011;65284;51.040;13.722;2023-09-18T04:45:36;8.25;;;6.07;;
76447;SDS011;65284;51.040;13.722;2023-09-18T04:48:03;9.73;;;6.53;;
76447;SDS011;65284;51.040;13.722;2023-09-18T04:50:32;8.93;;;6.03;;
76447;SDS011;65284;51.040;13.722;2023-09-18T04:53:00;7.97;;;5.70;;
76447;SDS011;65284;51.040;13.722;2023-09-18T04:55:26;10.75;;;7.57;;
76447;SDS011;65284;51.040;13.722;2023-09-18T04:57:53;8.43;;;6.47;;
76447;SDS011;65284;51.040;13.722;2023-09-18T05:00:19;9.90;;;6.03;;
76447;SDS011;65284;51.040;13.722;2023-09-18T05:02:50;8.45;;;5.68;;
76447;SDS011;65284;51.040;13.722;2023-09-18T05:05:17;9.13;;;5.80;;
76447;SDS011;65284;51.040;13.722;2023-09-18T05:07:44;8.52;;;6.10;;
76447;SDS011;65284;51.040;13.722;2023-09-18T05:10:11;7.90;;;5.97;;
76447;SDS011;65284;51.040;13.722;2023-09-18T05:12:38;9.65;;;6.43;;
76447;SDS011;65284;51.040;13.722;2023-09-18T05:15:05;13.80;;;6.65;;
76447;SDS011;65284;51.040;13.722;2023-09-18T05:17:39;8.93;;;6.15;;
76447;SDS011;65284;51.040;13.722;2023-09-18T05:20:13;7.55;;;6.25;;
76447;SDS011;65284;51.040;13.722;2023-09-18T05:22:43;7.45;;;5.60;;
76447;SDS011;65284;51.040;13.722;2023-09-18T05:25:11;8.23;;;6.10;;
76447;SDS011;65284;51.040;13.722;2023-09-18T05:27:38;8.45;;;6.10;;
76447;SDS011;65284;51.040;13.722;2023-09-18T05:30:11;7.78;;;5.85;;
76447;SDS011;65284;51.040;13.722;2023-09-18T05:32:42;10.48;;;5.97;;
76447;SDS011;65284;51.040;13.722;2023-09-18T05:35:10;10.07;;;6.10;;
76447;SDS011;65284;51.040;13.722;2023-09-18T05:37:39;9.70;;;5.93;;
76447;SDS011;65284;51.040;13.722;2023-09-18T05:40:10;8.85;;;5.72;;
76447;SDS011;65284;51.040;13.722;2023-09-18T05:42:38;10.30;;;6.25;;
76447;SDS011;65284;51.040;13.722;2023-09-18T05:45:05;11.23;;;6.05;;
76447;SDS011;65284;51.040;13.722;2023-09-18T05:47:32;9.07;;;5.72;;
76447;SDS011;65284;51.040;13.722;2023-09-18T05:50:00;8.75;;;5.78;;
76447;SDS011;65284;51.040;13.722;2023-09-18T05:52:26;10.05;;;5.78;;
76447;SDS011;65284;51.040;13.722;2023-09-18T05:54:52;12.25;;;6.70;;
76447;SDS011;65284;51.040;13.722;2023-09-18T05:57:19;9.30;;;5.70;;
76447;SDS011;65284;51.040;13.722;2023-09-18T05:59:46;9.82;;;5.28;;
76447;SDS011;65284;51.040;13.722;2023-09-18T06:02:12;8.00;;;5.68;;
76447;SDS011;65284;51.040;13.722;2023-09-18T06:04:42;8.15;;;5.72;;
76447;SDS011;65284;51.040;13.722;2023-09-18T06:07:09;8.38;;;5.90;;
76447;SDS011;65284;51.040;13.722;2023-09-18T06:09:35;10.95;;;6.40;;
76447;SDS011;65284;51.040;13.722;2023-09-18T06:12:02;8.35;;;6.32;;
76447;SDS011;65284;51.040;13.722;2023-09-18T06:14:31;9.48;;;5.88;;
76447;SDS011;65284;51.040;13.722;2023-09-18T06:17:00;8.25;;;5.80;;
76447;SDS011;65284;51.040;13.722;2023-09-18T06:19:27;8.80;;;6.05;;
76447;SDS011;65284;51.040;13.722;2023-09-18T06:21:54;8.70;;;6.05;;
76447;SDS011;65284;51.040;13.722;2023-09-18T06:24:20;9.95;;;6.43;;
76447;SDS011;65284;51.040;13.722;2023-09-18T06:26:47;9.00;;;6.20;;
76447;SDS011;65284;51.040;13.722;2023-09-18T06:29:14;10.43;;;6.00;;
76447;SDS011;65284;51.040;13.722;2023-09-18T06:31:40;8.25;;;5.68;;
76447;SDS011;65284;51.040;13.722;2023-09-18T06:34:07;7.53;;;5.70;;
76447;SDS011;65284;51.040;13.722;2023-09-18T06:36:34;11.15;;;5.53;;
76447;SDS011;65284;51.040;13.722;2023-09-18T06:39:00;10.98;;;5.78;;
76447;SDS011;65284;51.040;13.722;2023-09-18T06:41:27;8.88;;;5.70;;
76447;SDS011;65284;51.040;13.722;2023-09-18T06:43:53;9.85;;;5.65;;
76447;SDS011;65284;51.040;13.722;2023-09-18T06:46:20;7.65;;;5.63;;
76447;SDS011;65284;51.040;13.722;2023-09-18T06:48:49;7.97;;;5.72;;
76447;SDS011;65284;51.040;13.722;2023-09-18T06:51:18;9.13;;;5.82;;
76447;SDS011;65284;51.040;13.722;2023-09-18T06:53:55;9.13;;;5.90;;
76447;SDS011;65284;51.040;13.722;2023-09-18T06:56:26;8.15;;;5.85;;
76447;SDS011;65284;51.040;13.722;2023-09-18T06:58:53;11.60;;;5.82;;
76447;SDS011;65284;51.040;13.722;2023-09-18T07:01:19;8.13;;;6.05;;
76447;SDS011;65284;51.040;13.722;2023-09-18T07:03:47;7.57;;;5.40;;
76447;SDS011;65284;51.040;13.722;2023-09-18T07:06:14;9.90;;;5.75;;
76447;SDS011;65284;51.040;13.722;2023-09-18T07:08:46;9.30;;;6.05;;
76447;SDS011;65284;51.040;13.722;2023-09-18T07:11:16;8.45;;;6.05;;
76447;SDS011;65284;51.040;13.722;2023-09-18T07:13:43;9.18;;;5.90;;
76447;SDS011;65284;51.040;13.722;2023-09-18T07:16:10;8.80;;;5.88;;
76447;SDS011;65284;51.040;13.722;2023-09-18T07:18:37;9.57;;;6.13;;
76447;SDS011;65284;51.040;13.722;2023-09-18T07:21:03;7.90;;;5.60;;
76447;SDS011;65284;51.040;13.722;2023-09-18T07:23:30;8.25;;;5.63;;
76447;SDS011;65284;51.040;13.722;2023-09-18T07:25:56;8.68;;;5.57;;
76447;SDS011;65284;51.040;13.722;2023-09-18T07:28:26;8.73;;;5.70;;
76447;SDS011;65284;51.040;13.722;2023-09-18T07:30:52;9.73;;;5.80;;
76447;SDS011;65284;51.040;13.722;2023-09-18T07:33:19;8.43;;;5.53;;
76447;SDS011;65284;51.040;13.722;2023-09-18T07:35:47;7.90;;;5.70;;
76447;SDS011;65284;51.040;13.722;2023-09-18T07:38:20;8.63;;;5.30;;
76447;SDS011;65284;51.040;13.722;2023-09-18T07:40:46;9.95;;;5.82;;
76447;SDS011;65284;51.040;13.722;2023-09-18T07:43:13;9.88;;;5.65;;
76447;SDS011;65284;51.040;13.722;2023-09-18T07:45:40;8.55;;;5.18;;
76447;SDS011;65284;51.040;13.722;2023-09-18T07:48:07;7.80;;;5.82;;
76447;SDS011;65284;51.040;13.722;2023-09-18T07:50:34;7.88;;;5.53;;
76447;SDS011;65284;51.040;13.722;2023-09-18T07:53:02;9.48;;;5.30;;
76447;SDS011;65284;51.040;13.722;2023-09-18T07:55:29;7.53;;;5.57;;
76447;SDS011;65284;51.040;13.722;2023-09-18T07:57:56;10.75;;;5.63;;
76447;SDS011;65284;51.040;13.722;2023-09-18T08:00:25;6.82;;;5.07;;
76447;SDS011;65284;51.040;13.722;2023-09-18T08:02:53;10.77;;;5.05;;
76447;SDS011;65284;51.040;13.722;2023-09-18T08:05:24;10.55;;;5.45;;
76447;SDS011;65284;51.040;13.722;2023-09-18T08:07:54;7.50;;;5.22;;
76447;SDS011;65284;51.040;13.722;2023-09-18T08:10:25;9.32;;;5.60;;
76447;SDS011;65284;51.040;13.722;2023-09-18T08:12:52;9.18;;;4.90;;
76447;SDS011;65284;51.040;13.722;2023-09-18T08:15:19;6.65;;;5.07;;
76447;SDS011;65284;51.040;13.722;2023-09-18T08:17:46;8.50;;;5.18;;
76447;SDS011;65284;51.040;13.722;2023-09-18T08:20:15;9.77;;;5.10;;
76447;SDS011;65284;51.040;13.722;2023-09-18T08:22:43;9.13;;;4.95;;
76447;SDS011;65284;51.040;13.722;2023-09-18T08:25:10;9.23;;;4.90;;
76447;SDS011;65284;51.040;13.722;2023-09-18T08:27:38;6.90;;;5.13;;
76447;SDS011;65284;51.040;13.722;2023-09-18T08:30:10;7.75;;;4.78;;
76447;SDS011;65284;51.040;13.722;2023-09-18T08:32:38;8.15;;;5.35;;
76447;SDS011;65284;51.040;13.722;2023-09-18T08:35:06;8.30;;;5.53;;
76447;SDS011;65284;51.040;13.722;2023-09-18T08:37:33;6.10;;;4.72;;
76447;SDS011;65284;51.040;13.722;2023-09-18T08:39:59;7.90;;;4.80;;
76447;SDS011;65284;51.040;13.722;2023-09-18T08:42:43;7.07;;;4.63;;
76447;SDS011;65284;51.040;13.722;2023-09-18T08:45:13;6.97;;;4.43;;
76447;SDS011;65284;51.040;13.722;2023-09-18T08:47:43;6.78;;;4.60;;
76447;SDS011;65284;51.040;13.722;2023-09-18T08:50:11;6.85;;;4.60;;
76447;SDS011;65284;51.040;13.722;2023-09-18T08:52:38;9.15;;;4.60;;
76447;SDS011;65284;51.040;13.722;2023-09-18T08:55:06;8.43;;;4.40;;
76447;SDS011;65284;51.040;13.722;2023-09-18T08:57:35;6.13;;;4.25;;
76447;SDS011;65284;51.040;13.722;2023-09-18T09:00:04;5.35;;;3.85;;
76447;SDS011;65284;51.040;13.722;2023-09-18T09:02:34;7.38;;;3.92;;
76447;SDS011;65284;51.040;13.722;2023-09-18T09:05:01;9.77;;;4.03;;
76447;SDS011;65284;51.040;13.722;2023-09-18T09:07:27;5.28;;;3.95;;
76447;SDS011;65284;51.040;13.722;2023-09-18T09:09:57;5.20;;;3.97;;
76447;SDS011;65284;51.040;13.722;2023-09-18T09:15:16;5.85;;;4.00;;
76447;SDS011;65284;51.040;13.722;2023-09-18T09:17:43;7.03;;;4.00;;
76447;SDS011;65284;51.040;13.722;2023-09-18T09:20:14;8.30;;;4.00;;
76447;SDS011;65284;51.040;13.722;2023-09-18T09:22:41;6.15;;;4.15;;
76447;SDS011;65284;51.040;13.722;2023-09-18T09:27:53;5.82;;;3.53;;
76447;SDS011;65284;51.040;13.722;2023-09-18T09:30:21;6.00;;;3.50;;
76447;SDS011;65284;51.040;13.722;2023-09-18T09:32:53;5.35;;;3.42;;
76447;SDS011;65284;51.040;13.722;2023-09-18T09:35:23;8.18;;;3.60;;
76447;SDS011;65284;51.040;13.722;2023-09-18T09:37:57;6.88;;;3.63;;
76447;SDS011;65284;51.040;13.722;2023-09-18T09:40:28;7.60;;;3.95;;
76447;SDS011;65284;51.040;13.722;2023-09-18T09:42:55;6.03;;;3.83;;
76447;SDS011;65284;51.040;13.722;2023-09-18T09:45:29;5.07;;;3.45;;
76447;SDS011;65284;51.040;13.722;2023-09-18T09:48:02;6.03;;;3.88;;
76447;SDS011;65284;51.040;13.722;2023-09-18T09:50:57;5.85;;;3.55;;
76447;SDS011;65284;51.040;13.722;2023-09-18T09:53:41;8.73;;;3.53;;
76447;SDS011;65284;51.040;13.722;2023-09-18T09:56:09;10.07;;;4.22;;
76447;SDS011;65284;51.040;13.722;2023-09-18T09:58:36;8.30;;;4.03;;
76447;SDS011;65284;51.040;13.722;2023-09-18T10:01:03;5.15;;;3.70;;
76447;SDS011;65284;51.040;13.722;2023-09-18T10:03:35;6.90;;;3.50;;
76447;SDS011;65284;51.040;13.722;2023-09-18T10:08:31;6.35;;;3.47;;
76447;SDS011;65284;51.040;13.722;2023-09-18T10:11:01;5.20;;;3.63;;
76447;SDS011;65284;51.040;13.722;2023-09-18T10:13:58;5.63;;;3.53;;
76447;SDS011;65284;51.040;13.722;2023-09-18T10:16:29;5.93;;;3.92;;
76447;SDS011;65284;51.040;13.722;2023-09-18T10:24:24;6.25;;;4.20;;
76447;SDS011;65284;51.040;13.722;2023-09-18T10:26:56;7.38;;;4.00;;
76447;SDS011;65284;51.040;13.722;2023-09-18T10:29:27;6.63;;;3.97;;
76447;SDS011;65284;51.040;13.722;2023-09-18T10:31:56;5.45;;;4.10;;
76447;SDS011;65284;51.040;13.722;2023-09-18T10:34:23;6.00;;;4.15;;
76447;SDS011;65284;51.040;13.722;2023-09-18T10:36:52;26.35;;;12.38;;
76447;SDS011;65284;51.040;13.722;2023-09-18T10:39:20;36.13;;;17.67;;
76447;SDS011;65284;51.040;13.722;2023-09-18T10:41:53;16.40;;;8.93;;
76447;SDS011;65284;51.040;13.722;2023-09-18T10:44:22;13.57;;;6.63;;
76447;SDS011;65284;51.040;13.722;2023-09-18T10:46:49;9.52;;;5.00;;
76447;SDS011;65284;51.040;13.722;2023-09-18T10:49:18;7.07;;;4.03;;
76447;SDS011;65284;51.040;13.722;2023-09-18T10:51:45;6.70;;;3.63;;
76447;SDS011;65284;51.040;13.722;2023-09-18T10:54:17;7.30;;;3.35;;
76447;SDS011;65284;51.040;13.722;2023-09-18T10:56:47;6.07;;;3.63;;
76447;SDS011;65284;51.040;13.722;2023-09-18T10:59:13;6.63;;;3.35;;
76447;SDS011;65284;51.040;13.722;2023-09-18T11:01:41;6.40;;;3.67;;
76447;SDS011;65284;51.040;13.722;2023-09-18T11:04:08;6.53;;;3.10;;
76447;SDS011;65284;51.040;13.722;2023-09-18T11:09:23;4.82;;;3.25;;
76447;SDS011;65284;51.040;13.722;2023-09-18T11:11:53;7.03;;;3.00;;
76447;SDS011;65284;51.040;13.722;2023-09-18T11:14:43;5.75;;;3.10;;
76447;SDS011;65284;51.040;13.722;2023-09-18T11:22:39;8.27;;;2.65;;
76447;SDS011;65284;51.040;13.722;2023-09-18T11:28:01;6.45;;;2.78;;
76447;SDS011;65284;51.040;13.722;2023-09-18T11:30:29;5.68;;;2.83;;
76447;SDS011;65284;51.040;13.722;2023-09-18T11:32:56;3.92;;;2.80;;
76447;SDS011;65284;51.040;13.722;2023-09-18T11:35:23;4.80;;;2.50;;
76447;SDS011;65284;51.040;13.722;2023-09-18T11:38:02;5.47;;;2.63;;
76447;SDS011;65284;51.040;13.722;2023-09-18T11:40:32;4.82;;;2.50;;
76447;SDS011;65284;51.040;13.722;2023-09-18T11:43:26;7.68;;;2.90;;
76447;SDS011;65284;51.040;13.722;2023-09-18T11:45:52;4.72;;;3.20;;
76447;SDS011;65284;51.040;13.722;2023-09-18T11:48:25;5.25;;;3.10;;
76447;SDS011;65284;51.040;13.722;2023-09-18T11:50:57;5.57;;;3.28;;
76447;SDS011;65284;51.040;13.722;2023-09-18T11:53:26;6.75;;;3.38;;
76447;SDS011;65284;51.040;13.722;2023-09-18T11:55:54;4.90;;;3.10;;
76447;SDS011;65284;51.040;13.722;2023-09-18T11:58:21;5.35;;;3.42;;
76447;SDS011;65284;51.040;13.722;2023-09-18T12:00:50;6.13;;;3.40;;
76447;SDS011;65284;51.040;13.722;2023-09-18T12:05:54;4.35;;;3.65;;
76447;SDS011;65284;51.040;13.722;2023-09-18T12:08:23;5.05;;;3.70;;
76447;SDS011;65284;51.040;13.722;2023-09-18T12:10:54;6.63;;;3.92;;
76447;SDS011;65284;51.040;13.722;2023-09-18T12:13:20;7.65;;;3.40;;
76447;SDS011;65284;51.040;13.722;2023-09-18T12:15:48;6.10;;;3.40;;
76447;SDS011;65284;51.040;13.722;2023-09-18T12:18:15;5.20;;;3.38;;
76447;SDS011;65284;51.040;13.722;2023-09-18T12:20:49;4.97;;;3.60;;
76447;SDS011;65284;51.040;13.722;2023-09-18T12:23:16;9.48;;;4.70;;
76447;SDS011;65284;51.040;13.722;2023-09-18T12:25:46;6.50;;;4.45;;
76447;SDS011;65284;51.040;13.722;2023-09-18T12:28:15;7.00;;;3.35;;
76447;SDS011;65284;51.040;13.722;2023-09-18T12:30:43;5.10;;;3.30;;
76447;SDS011;65284;51.040;13.722;2023-09-18T12:33:14;5.85;;;3.00;;
76447;SDS011;65284;51.040;13.722;2023-09-18T12:35:41;4.90;;;2.90;;
76447;SDS011;65284;51.040;13.722;2023-09-18T12:38:15;4.80;;;3.08;;
76447;SDS011;65284;51.040;13.722;2023-09-18T12:40:45;5.93;;;3.92;;
76447;SDS011;65284;51.040;13.722;2023-09-18T12:43:13;7.28;;;3.72;;
76447;SDS011;65284;51.040;13.722;2023-09-18T12:45:43;7.22;;;3.28;;
76447;SDS011;65284;51.040;13.722;2023-09-18T12:48:11;6.45;;;3.60;;
76447;SDS011;65284;51.040;13.722;2023-09-18T12:50:38;6.55;;;4.13;;
76447;SDS011;65284;51.040;13.722;2023-09-18T12:53:06;5.70;;;4.18;;
76447;SDS011;65284;51.040;13.722;2023-09-18T12:55:36;5.95;;;4.40;;
76447;SDS011;65284;51.040;13.722;2023-09-18T12:58:03;11.77;;;4.70;;
76447;SDS011;65284;51.040;13.722;2023-09-18T13:00:34;10.38;;;4.65;;
76447;SDS011;65284;51.040;13.722;2023-09-18T13:03:02;7.13;;;4.75;;
76447;SDS011;65284;51.040;13.722;2023-09-18T13:05:31;6.93;;;4.90;;
76447;SDS011;65284;51.040;13.722;2023-09-18T13:08:05;11.38;;;5.15;;
76447;SDS011;65284;51.040;13.722;2023-09-18T13:10:44;9.32;;;5.03;;
76447;SDS011;65284;51.040;13.722;2023-09-18T13:13:16;6.75;;;4.72;;
76447;SDS011;65284;51.040;13.722;2023-09-18T13:15:44;6.85;;;4.70;;
76447;SDS011;65284;51.040;13.722;2023-09-18T13:18:14;8.25;;;5.00;;
76447;SDS011;65284;51.040;13.722;2023-09-18T13:20:42;8.70;;;4.45;;
76447;SDS011;65284;51.040;13.722;2023-09-18T13:23:10;9.07;;;4.72;;
76447;SDS011;65284;51.040;13.722;2023-09-18T13:25:37;6.35;;;4.45;;
76447;SDS011;65284;51.040;13.722;2023-09-18T13:28:07;9.35;;;4.72;;
76447;SDS011;65284;51.040;13.722;2023-09-18T13:33:09;9.75;;;4.65;;
76447;SDS011;65284;51.040;13.722;2023-09-18T13:35:37;9.07;;;4.63;;
76447;SDS011;65284;51.040;13.722;2023-09-18T13:38:06;7.72;;;4.30;;
76447;SDS011;65284;51.040;13.722;2023-09-18T13:40:37;7.97;;;4.30;;
76447;SDS011;65284;51.040;13.722;2023-09-18T13:43:05;11.20;;;4.63;;
76447;SDS011;65284;51.040;13.722;2023-09-18T13:45:32;6.35;;;3.85;;
76447;SDS011;65284;51.040;13.722;2023-09-18T13:48:01;11.85;;;4.55;;
76447;SDS011;65284;51.040;13.722;2023-09-18T13:50:29;5.10;;;3.60;;
76447;SDS011;65284;51.040;13.722;2023-09-18T13:52:55;6.22;;;3.03;;
76447;SDS011;65284;51.040;13.722;2023-09-18T13:55:23;5.22;;;3.20;;
76447;SDS011;65284;51.040;13.722;2023-09-18T13:57:49;8.63;;;3.35;;
76447;SDS011;65284;51.040;13.722;2023-09-18T14:00:15;4.90;;;3.17;;
76447;SDS011;65284;51.040;13.722;2023-09-18T14:02:42;6.32;;;3.20;;
76447;SDS011;65284;51.040;13.722;2023-09-18T14:05:09;7.28;;;3.15;;
76447;SDS011;65284;51.040;13.722;2023-09-18T14:07:43;6.57;;;2.92;;
76447;SDS011;65284;51.040;13.722;2023-09-18T14:10:10;8.35;;;2.80;;
76447;SDS011;65284;51.040;13.722;2023-09-18T14:12:37;8.40;;;2.75;;
76447;SDS011;65284;51.040;13.722;2023-09-18T14:15:05;10.30;;;2.92;;
76447;SDS011;65284;51.040;13.722;2023-09-18T14:17:35;10.55;;;2.45;;
76447;SDS011;65284;51.040;13.722;2023-09-18T14:20:05;9.23;;;2.22;;
76447;SDS011;65284;51.040;13.722;2023-09-18T14:22:33;10.98;;;2.13;;
76447;SDS011;65284;51.040;13.722;2023-09-18T14:25:01;9.15;;;2.20;;
76447;SDS011;65284;51.040;13.722;2023-09-18T14:27:31;9.45;;;1.92;;
76447;SDS011;65284;51.040;13.722;2023-09-18T14:29:58;12.63;;;2.42;;
76447;SDS011;65284;51.040;13.722;2023-09-18T14:32:25;8.95;;;2.05;;
76447;SDS011;65284;51.040;13.722;2023-09-18T14:34:52;8.60;;;2.20;;
76447;SDS011;65284;51.040;13.722;2023-09-18T14:37:19;10.32;;;2.35;;
76447;SDS011;65284;51.040;13.722;2023-09-18T14:39:45;13.00;;;2.35;;
76447;SDS011;65284;51.040;13.722;2023-09-18T14:42:13;11.63;;;2.35;;
76447;SDS011;65284;51.040;13.722;2023-09-18T14:44:39;7.18;;;2.10;;
76447;SDS011;65284;51.040;13.722;2023-09-18T14:47:11;10.18;;;1.92;;
76447;SDS011;65284;51.040;13.722;2023-09-18T14:49:38;11.30;;;2.10;;
76447;SDS011;65284;51.040;13.722;2023-09-18T14:52:06;7.80;;;2.10;;
76447;SDS011;65284;51.040;13.722;2023-09-18T14:54:32;7.00;;;2.00;;
76447;SDS011;65284;51.040;13.722;2023-09-18T14:56:59;7.95;;;2.05;;
76447;SDS011;65284;51.040;13.722;2023-09-18T14:59:27;8.25;;;2.28;;
76447;SDS011;65284;51.040;13.722;2023-09-18T15:02:07;6.53;;;2.20;;
76447;SDS011;65284;51.040;13.722;2023-09-18T15:04:34;5.65;;;2.30;;
76447;SDS011;65284;51.040;13.722;2023-09-18T15:07:01;8.82;;;2.60;;
76447;SDS011;65284;51.040;13.722;2023-09-18T15:09:28;5.53;;;2.17;;
76447;SDS011;65284;51.040;13.722;2023-09-18T15:11:54;11.80;;;2.60;;